Time;durP1;ratioP1;P1;durP2;ratioP2;P2;SDS_P1;SDS_P2;PMS_P1;PMS_P2;Temp;Humidity;BMP_temperature;BMP_pressure;BME280_temperature;BME280_humidity;BME280_pressure;Samples;Min_cycle;Max_cycle;Signal;HPM_P1;HPM_P2
2023/09/10 00:00:41;;;;;;;4.57;2.70;;;;;;;21.37;49.86;99912.19;4465739;32;33454;-65
2023/09/10 00:03:09;;;;;;;3.78;2.65;;;;;;;21.39;49.87;99912.03;4467048;32;33631;-65
2023/09/10 00:05:36;;;;;;;6.85;3.08;;;;;;;21.15;50.49;99908.41;4460275;32;34997;-65
2023/09/10 00:08:04;;;;;;;5.68;3.37;;;;;;;21.32;50.06;99917.31;4460345;32;33678;-65
2023/09/10 00:10:32;;;;;;;6.35;3.67;;;;;;;21.32;50.06;99905.59;4463674;32;33049;-64
2023/09/10 00:13:03;;;;;;;5.87;2.97;;;;;;;21.29;50.18;99900.50;4466734;32;34630;-65
2023/09/10 00:15:31;;;;;;;3.97;2.55;;;;;;;21.39;49.93;99904.72;4465504;32;35642;-65
2023/09/10 00:17:59;;;;;;;4.03;2.40;;;;;;;21.38;50.04;99904.91;4463303;32;33771;-65
2023/09/10 00:20:27;;;;;;;6.03;2.78;;;;;;;21.28;50.26;99912.41;4465096;32;31750;-66
2023/09/10 00:22:57;;;;;;;4.90;3.08;;;;;;;21.31;50.26;99904.72;4464301;32;33677;-66
2023/09/10 00:25:25;;;;;;;5.53;3.05;;;;;;;21.31;50.30;99904.72;4464573;32;33748;-65
2023/09/10 00:27:53;;;;;;;4.70;2.55;;;;;;;21.24;50.46;99906.47;4461509;32;33462;-65
2023/09/10 00:30:20;;;;;;;3.95;2.92;;;;;;;21.29;50.33;99903.22;4466095;32;33163;-65
2023/09/10 00:32:48;;;;;;;7.85;3.12;;;;;;;21.23;50.56;99912.13;4464080;32;34612;-65
2023/09/10 00:35:16;;;;;;;5.10;2.70;;;;;;;21.26;50.51;99909.87;4464012;32;33778;-65
2023/09/10 00:37:43;;;;;;;5.43;3.55;;;;;;;21.33;50.39;99904.56;4460538;32;34544;-66
2023/09/10 00:40:12;;;;;;;4.97;2.67;;;;;;;21.15;50.99;99897.53;4465513;32;33172;-67
2023/09/10 00:42:40;;;;;;;6.03;3.30;;;;;;;21.10;51.21;99902.66;4464401;32;33507;-65
2023/09/10 00:45:10;;;;;;;6.62;3.60;;;;;;;21.29;50.76;99906.78;4465585;32;33918;-65
2023/09/10 00:47:41;;;;;;;8.13;4.00;;;;;;;21.35;50.63;99905.28;4466268;32;34649;-65
2023/09/10 00:50:09;;;;;;;6.87;3.22;;;;;;;20.74;52.54;99912.34;4466058;32;34105;-65
2023/09/10 00:52:49;;;;;;;3.60;2.33;;;;;;;21.12;51.38;99903.34;4465245;32;33868;-65
2023/09/10 00:55:18;;;;;;;4.05;2.58;;;;;;;20.89;52.19;99905.12;4462347;32;33932;-65
2023/09/10 00:57:46;;;;;;;6.93;3.40;;;;;;;21.14;51.44;99908.59;4460966;32;34599;-66
2023/09/10 01:00:14;;;;;;;5.28;3.20;;;;;;;21.08;51.35;99903.84;4464550;32;33527;-65
2023/09/10 01:02:44;;;;;;;6.05;3.15;;;;;;;21.24;50.85;99908.34;4452974;32;33597;-66
2023/09/10 01:05:15;;;;;;;5.25;3.08;;;;;;;21.24;50.78;99908.34;4458751;32;34351;-66
2023/09/10 01:07:44;;;;;;;5.95;2.90;;;;;;;21.02;51.22;99910.84;4459552;32;32088;-65
2023/09/10 01:10:12;;;;;;;6.60;3.28;;;;;;;20.99;51.31;99903.03;4454570;32;33227;-66
2023/09/10 01:12:55;;;;;;;6.60;2.92;;;;;;;21.00;51.31;99914.81;4453428;32;34085;-66
2023/09/10 01:15:27;;;;;;;7.65;3.72;;;;;;;21.12;50.87;99902.47;4463266;32;34939;-66
2023/09/10 01:18:09;;;;;;;4.25;2.45;;;;;;;21.07;51.18;99908.44;4465433;32;34123;-66
2023/09/10 01:20:59;;;;;;;5.35;2.53;;;;;;;21.08;51.29;99904.69;4460327;32;33078;-65
2023/09/10 01:23:51;;;;;;;5.15;2.80;;;;;;;21.18;51.05;99897.16;4466820;32;34566;-65
2023/09/10 01:26:19;;;;;;;6.28;2.62;;;;;;;21.26;50.84;99903.59;4458064;32;33995;-66
2023/09/10 01:28:46;;;;;;;5.25;2.83;;;;;;;21.24;50.92;99902.91;4466703;32;33628;-66
2023/09/10 01:31:14;;;;;;;6.47;3.87;;;;;;;21.16;51.10;99899.22;4464371;32;33498;-67
2023/09/10 01:33:46;;;;;;;4.85;2.80;;;;;;;21.22;50.83;99900.38;4464818;32;33993;-66
2023/09/10 01:36:31;;;;;;;4.60;2.45;;;;;;;21.19;50.89;99895.31;4458090;32;35376;-66
2023/09/10 01:39:12;;;;;;;5.90;3.58;;;;;;;21.22;50.76;99900.38;4459964;32;33841;-65
2023/09/10 01:41:40;;;;;;;6.18;3.50;;;;;;;21.13;50.95;99902.31;4451206;32;33289;-67
2023/09/10 01:44:08;;;;;;;4.20;2.47;;;;;;;21.09;51.14;99900.97;4458187;32;34996;-65
2023/09/10 01:46:36;;;;;;;3.62;2.55;;;;;;;21.11;50.99;99898.06;4453803;32;33637;-64
2023/09/10 01:49:04;;;;;;;5.65;2.10;;;;;;;21.11;50.88;99898.06;4436900;32;34914;-65
2023/09/10 01:51:32;;;;;;;6.30;3.03;;;;;;;21.07;50.99;99903.00;4460205;32;33185;-64
2023/09/10 01:53:59;;;;;;;3.35;1.98;;;;;;;21.10;50.95;99907.25;4452106;32;33883;-63
2023/09/10 01:56:27;;;;;;;4.15;2.33;;;;;;;21.07;51.00;99905.72;4457734;32;35006;-64
2023/09/10 01:58:55;;;;;;;6.25;3.10;;;;;;;21.08;50.98;99904.69;4453314;32;34745;-65
2023/09/10 02:01:22;;;;;;;3.92;3.05;;;;;;;21.01;51.27;99898.28;4458334;32;33153;-64
2023/09/10 02:03:50;;;;;;;5.55;2.75;;;;;;;21.01;51.33;99902.87;4454076;32;31964;-65
2023/09/10 02:06:18;;;;;;;4.65;2.75;;;;;;;21.03;51.13;99903.56;4448840;32;34901;-65
2023/09/10 02:08:46;;;;;;;5.37;2.42;;;;;;;20.84;51.64;99908.41;4448825;32;33844;-65
2023/09/10 02:11:13;;;;;;;5.85;2.70;;;;;;;20.93;51.33;99907.34;4460653;32;32719;-66
2023/09/10 02:13:41;;;;;;;5.05;3.00;;;;;;;20.87;51.54;99902.63;4458933;32;33409;-68
2023/09/10 02:16:09;;;;;;;4.07;2.55;;;;;;;20.94;51.37;99910.91;4466206;32;35060;-68
2023/09/10 02:18:37;;;;;;;8.43;3.03;;;;;;;20.89;51.57;99902.41;4469310;32;34115;-67
2023/09/10 02:21:12;;;;;;;7.68;3.08;;;;;;;20.92;51.40;99905.62;4466950;32;33333;-65
2023/09/10 02:23:43;;;;;;;7.20;3.17;;;;;;;20.90;51.58;99904.13;4467561;32;34012;-66
2023/09/10 02:26:11;;;;;;;3.87;2.60;;;;;;;20.86;51.77;99906.34;4467182;32;33913;-67
2023/09/10 02:28:39;;;;;;;6.07;3.05;;;;;;;20.88;51.72;99907.03;4466988;32;34707;-67
2023/09/10 02:31:08;;;;;;;6.53;2.80;;;;;;;20.85;51.83;99914.69;4466144;32;31866;-67
2023/09/10 02:33:36;;;;;;;5.53;2.67;;;;;;;20.80;51.98;99912.50;4467271;32;34992;-67
2023/09/10 02:36:03;;;;;;;8.73;4.30;;;;;;;20.87;51.73;99908.06;4457039;32;33981;-66
2023/09/10 02:38:31;;;;;;;3.65;2.40;;;;;;;20.86;51.81;99916.38;4468625;32;34639;-66
2023/09/10 02:40:59;;;;;;;6.78;3.22;;;;;;;20.73;52.10;99921.53;4459891;32;33296;-66
2023/09/10 02:43:27;;;;;;;5.15;2.50;;;;;;;20.73;52.15;99911.50;4466291;32;33842;-67
2023/09/10 02:45:55;;;;;;;5.15;3.33;;;;;;;20.83;51.80;99905.84;4468263;32;34875;-66
2023/09/10 02:48:23;;;;;;;7.78;4.12;;;;;;;20.85;51.71;99920.97;4468482;32;34766;-65
2023/09/10 02:50:50;;;;;;;6.65;3.25;;;;;;;20.87;51.81;99907.22;4465378;32;33170;-67
2023/09/10 02:53:18;;;;;;;7.93;3.55;;;;;;;20.85;51.84;99903.81;4459564;32;33246;-67
2023/09/10 02:55:46;;;;;;;5.22;2.62;;;;;;;20.85;51.81;99911.97;4466800;32;34025;-67
2023/09/10 02:58:13;;;;;;;5.90;3.50;;;;;;;20.88;51.67;99900.72;4467886;32;34724;-66
2023/09/10 03:00:41;;;;;;;5.55;3.25;;;;;;;20.83;51.88;99901.25;4464296;32;33111;-67
2023/09/10 03:03:09;;;;;;;6.37;3.37;;;;;;;20.79;52.02;99908.06;4465911;32;34691;-67
2023/09/10 03:05:37;;;;;;;5.50;3.05;;;;;;;20.75;52.02;99905.91;4467272;32;34035;-67
2023/09/10 03:08:05;;;;;;;7.40;3.75;;;;;;;20.72;52.10;99907.09;4468767;32;33681;-66
2023/09/10 03:10:35;;;;;;;6.82;3.72;;;;;;;20.69;52.00;99905.56;4467521;32;34402;-66
2023/09/10 03:13:02;;;;;;;5.93;3.33;;;;;;;20.76;51.85;99907.59;4468605;32;33312;-66
2023/09/10 03:15:30;;;;;;;6.22;3.20;;;;;;;20.78;51.80;99906.38;4465150;32;33650;-65
2023/09/10 03:17:59;;;;;;;6.30;3.87;;;;;;;20.60;52.50;99912.06;4454610;32;34754;-66
2023/09/10 03:20:27;;;;;;;7.40;2.55;;;;;;;20.71;52.23;99905.41;4464070;32;34453;-66
2023/09/10 03:22:58;;;;;;;6.10;2.97;;;;;;;20.75;52.14;99895.03;4467416;32;35017;-65
2023/09/10 03:25:26;;;;;;;7.75;3.67;;;;;;;20.74;52.10;99906.91;4466877;32;34037;-66
2023/09/10 03:27:54;;;;;;;4.45;2.65;;;;;;;20.70;52.12;99899.09;4466865;32;32566;-66
2023/09/10 03:30:21;;;;;;;5.93;2.85;;;;;;;20.73;51.99;99899.78;4466113;32;33480;-65
2023/09/10 03:32:50;;;;;;;6.68;3.87;;;;;;;20.68;52.14;99897.59;4468712;32;34918;-65
2023/09/10 03:35:18;;;;;;;7.82;3.97;;;;;;;20.61;52.25;99893.87;4465852;32;34862;-65
2023/09/10 03:37:46;;;;;;;4.25;2.37;;;;;;;20.64;51.99;99885.34;4465457;32;32372;-66
2023/09/10 03:40:14;;;;;;;18.15;3.22;;;;;;;20.58;52.31;99894.25;4465430;32;34490;-65
2023/09/10 03:42:42;;;;;;;4.03;2.28;;;;;;;20.62;51.99;99898.31;4461413;32;34704;-65
2023/09/10 03:45:10;;;;;;;6.75;3.45;;;;;;;20.54;52.15;99888.28;4460396;32;34110;-66
2023/09/10 03:47:37;;;;;;;6.37;3.25;;;;;;;20.55;52.00;99894.59;4467950;32;33638;-65
2023/09/10 03:50:05;;;;;;;8.88;3.00;;;;;;;20.35;52.59;99889.53;4467553;32;34528;-65
2023/09/10 03:52:33;;;;;;;5.10;2.87;;;;;;;20.39;52.38;99890.03;4466619;32;33479;-66
2023/09/10 03:55:01;;;;;;;7.15;3.67;;;;;;;20.39;52.30;99892.75;4466279;32;34033;-66
2023/09/10 03:57:28;;;;;;;6.57;2.83;;;;;;;20.31;52.42;99887.31;4466570;32;33893;-66
2023/09/10 03:59:56;;;;;;;6.00;3.25;;;;;;;20.21;52.65;99887.50;4466423;32;34317;-66
2023/09/10 04:02:24;;;;;;;6.75;3.47;;;;;;;20.06;53.21;99887.34;4465617;32;34990;-67
2023/09/10 04:04:52;;;;;;;6.70;3.42;;;;;;;20.09;53.29;99886.16;4466145;32;34262;-66
2023/09/10 04:07:20;;;;;;;5.32;2.65;;;;;;;20.13;53.26;99885.66;4466715;32;33585;-65
2023/09/10 04:09:47;;;;;;;5.80;3.42;;;;;;;20.10;53.41;99891.44;4464543;32;34052;-66
2023/09/10 04:12:15;;;;;;;6.32;3.17;;;;;;;20.16;53.23;99893.47;4456919;32;33483;-66
2023/09/10 04:14:43;;;;;;;7.30;4.53;;;;;;;20.14;53.15;99900.94;4463988;32;34220;-66
2023/09/10 04:17:15;;;;;;;4.20;2.95;;;;;;;20.10;53.25;99888.72;4467313;32;33783;-66
2023/09/10 04:19:43;;;;;;;8.82;2.92;;;;;;;20.08;53.32;99896.19;4465226;32;31789;-66
2023/09/10 04:22:11;;;;;;;8.18;2.83;;;;;;;20.05;53.34;99899.25;4456060;32;34126;-66
2023/09/10 04:24:38;;;;;;;5.32;2.75;;;;;;;20.05;53.45;99899.25;4459395;32;33920;-66
2023/09/10 04:27:06;;;;;;;5.97;3.55;;;;;;;20.02;53.62;99902.31;4468489;32;33456;-66
2023/09/10 04:29:34;;;;;;;8.35;3.28;;;;;;;20.04;53.58;99899.44;4466795;32;33412;-67
2023/09/10 04:32:02;;;;;;;6.35;2.92;;;;;;;19.81;54.17;99904.69;4467304;32;32460;-66
2023/09/10 04:34:30;;;;;;;5.07;2.92;;;;;;;19.99;53.51;99908.09;4466309;32;34065;-66
2023/09/10 04:36:57;;;;;;;3.60;1.98;;;;;;;20.07;53.40;99899.94;4466874;32;34630;-66
2023/09/10 04:39:26;;;;;;;6.87;3.20;;;;;;;20.13;53.29;99910.13;4465639;32;34226;-66
2023/09/10 04:41:54;;;;;;;6.70;3.47;;;;;;;20.01;53.66;99906.06;4465749;32;32517;-66
2023/09/10 04:44:22;;;;;;;5.18;3.20;;;;;;;20.04;53.74;99904.88;4465482;32;33883;-66
2023/09/10 04:46:49;;;;;;;6.78;3.37;;;;;;;20.17;53.50;99906.03;4458671;32;33030;-66
2023/09/10 04:49:17;;;;;;;6.82;2.37;;;;;;;20.23;53.52;99918.09;4464321;32;33393;-66
2023/09/10 04:51:45;;;;;;;6.65;4.37;;;;;;;20.33;53.22;99910.59;4466523;32;33479;-66
2023/09/10 04:54:12;;;;;;;5.15;2.67;;;;;;;20.23;53.53;99916.22;4456261;32;34097;-66
2023/09/10 04:56:40;;;;;;;5.28;3.15;;;;;;;20.39;53.31;99920.78;4466597;32;33850;-66
2023/09/10 04:59:08;;;;;;;14.43;2.75;;;;;;;20.45;53.38;99919.22;4465121;32;33226;-66
2023/09/10 05:01:36;;;;;;;8.13;3.58;;;;;;;20.49;53.48;99920.56;4456408;32;33789;-67
2023/09/10 05:04:04;;;;;;;6.25;3.30;;;;;;;20.57;53.27;99923.28;4462411;32;32749;-70
2023/09/10 05:06:32;;;;;;;7.60;3.72;;;;;;;20.65;52.86;99928.72;4465425;32;33497;-70
2023/09/10 05:09:00;;;;;;;7.15;4.20;;;;;;;20.70;52.52;99923.56;4466966;32;33683;-69
2023/09/10 05:11:28;;;;;;;7.12;3.42;;;;;;;20.74;52.60;99920.50;4467021;32;34756;-68
2023/09/10 05:13:56;;;;;;;7.35;3.40;;;;;;;20.75;52.49;99924.94;4464052;32;34971;-68
2023/09/10 05:16:26;;;;;;;7.53;3.28;;;;;;;20.90;52.20;99925.91;4463372;32;32294;-70
2023/09/10 05:18:53;;;;;;;6.35;3.53;;;;;;;21.14;51.56;99923.03;4466574;32;33242;-68
2023/09/10 05:21:21;;;;;;;7.68;3.60;;;;;;;21.30;51.36;99924.81;4463870;32;34638;-69
2023/09/10 05:23:49;;;;;;;5.12;2.78;;;;;;;21.39;51.27;99923.78;4465738;32;33946;-69
2023/09/10 05:26:17;;;;;;;9.23;3.58;;;;;;;21.51;51.16;99934.22;4465006;32;33704;-69
2023/09/10 05:28:44;;;;;;;7.40;3.42;;;;;;;21.68;50.86;99932.25;4461373;32;33266;-69
2023/09/10 05:31:14;;;;;;;5.90;3.85;;;;;;;21.82;50.59;99937.75;4465837;32;32702;-66
2023/09/10 05:33:42;;;;;;;6.60;3.03;;;;;;;21.89;50.49;99939.75;4463290;32;33725;-66
2023/09/10 05:36:10;;;;;;;6.03;3.30;;;;;;;21.92;50.49;99940.22;4459789;32;35061;-66
2023/09/10 05:38:38;;;;;;;5.62;3.35;;;;;;;21.95;50.54;99939.84;4462650;32;34093;-70
2023/09/10 05:41:07;;;;;;;7.93;3.85;;;;;;;22.02;50.53;99939.97;4463533;32;33795;-67
2023/09/10 05:43:35;;;;;;;5.28;3.15;;;;;;;22.07;50.53;99943.00;4463896;32;34136;-67
2023/09/10 05:46:03;;;;;;;7.53;4.57;;;;;;;22.17;50.38;99950.94;4461350;32;34409;-67
2023/09/10 05:48:34;;;;;;;5.62;3.67;;;;;;;22.25;50.42;99957.16;4465234;32;32724;-67
2023/09/10 05:51:02;;;;;;;7.60;4.07;;;;;;;22.33;50.34;99948.91;4459404;32;33471;-67
2023/09/10 05:53:30;;;;;;;7.60;5.07;;;;;;;22.47;50.26;99949.09;4463846;32;35274;-67
2023/09/10 05:55:58;;;;;;;5.15;3.65;;;;;;;22.56;50.28;99948.81;4467078;32;34055;-67
2023/09/10 05:58:26;;;;;;;5.90;4.00;;;;;;;22.69;50.22;99950.03;4466135;32;32854;-67
2023/09/10 06:00:53;;;;;;;6.53;4.03;;;;;;;22.82;50.09;99958.41;4464914;32;33777;-67
2023/09/10 06:03:21;;;;;;;6.22;3.45;;;;;;;22.92;49.96;99956.28;4465660;32;34150;-67
2023/09/10 06:05:49;;;;;;;7.07;3.67;;;;;;;23.06;49.75;99953.75;4463651;32;34192;-67
2023/09/10 06:08:17;;;;;;;6.28;3.95;;;;;;;23.13;49.87;99951.94;4431275;32;33494;-67
2023/09/10 06:10:45;;;;;;;8.35;3.75;;;;;;;23.22;49.56;99953.53;4433389;32;33650;-67
2023/09/10 06:13:13;;;;;;;6.32;3.95;;;;;;;23.32;49.42;99951.31;4433399;32;33923;-67
2023/09/10 06:15:41;;;;;;;6.97;4.03;;;;;;;23.41;49.43;99960.25;4431289;32;34866;-68
2023/09/10 06:18:09;;;;;;;9.25;4.47;;;;;;;23.49;49.03;99949.19;4433484;32;33339;-67
2023/09/10 06:20:36;;;;;;;7.47;3.37;;;;;;;23.58;48.85;99958.13;4434044;32;33451;-67
2023/09/10 06:23:04;;;;;;;7.32;4.07;;;;;;;23.66;48.83;99963.47;4419154;32;34893;-67
2023/09/10 06:25:33;;;;;;;8.60;5.03;;;;;;;23.82;48.89;99957.78;4430836;32;34213;-67
2023/09/10 06:28:00;;;;;;;8.30;4.62;;;;;;;24.09;48.79;99956.13;4433243;32;33277;-67
2023/09/10 06:30:28;;;;;;;6.93;4.12;;;;;;;24.13;48.68;99956.56;4433563;32;34025;-68
2023/09/10 06:32:56;;;;;;;8.13;4.18;;;;;;;24.33;48.56;99963.06;4433584;32;34179;-68
2023/09/10 06:35:25;;;;;;;8.23;4.05;;;;;;;24.36;48.52;99959.06;4432626;32;33578;-68
2023/09/10 06:37:53;;;;;;;6.28;3.80;;;;;;;24.46;48.38;99966.94;4432922;32;33565;-67
2023/09/10 06:40:21;;;;;;;6.60;3.75;;;;;;;23.94;48.65;99958.06;4452446;32;33470;-68
2023/09/10 06:42:49;;;;;;;7.55;4.22;;;;;;;24.34;48.39;99964.75;4466387;32;34928;-68
2023/09/10 06:45:17;;;;;;;9.93;4.15;;;;;;;24.47;48.29;99968.66;4465805;32;34912;-68
2023/09/10 06:47:45;;;;;;;7.07;3.62;;;;;;;24.72;47.85;99969.00;4466116;32;33184;-68
2023/09/10 06:50:13;;;;;;;6.40;3.87;;;;;;;24.70;47.85;99966.47;4466300;32;34810;-68
2023/09/10 06:52:40;;;;;;;10.35;4.03;;;;;;;24.56;47.50;99968.31;4464791;32;34016;-68
2023/09/10 06:55:08;;;;;;;8.02;4.10;;;;;;;24.67;47.49;99972.34;4463393;32;34537;-68
2023/09/10 06:57:36;;;;;;;7.43;4.75;;;;;;;24.76;47.51;99981.25;4463301;32;33764;-68
2023/09/10 07:00:04;;;;;;;8.23;4.37;;;;;;;24.84;47.62;99970.97;4464734;32;34831;-68
2023/09/10 07:02:32;;;;;;;7.68;4.60;;;;;;;24.86;47.65;99979.84;4455068;32;33667;-68
2023/09/10 07:05:00;;;;;;;7.97;4.18;;;;;;;24.99;46.28;99979.06;4463487;32;33800;-68
2023/09/10 07:07:28;;;;;;;6.05;3.90;;;;;;;24.92;46.54;99989.16;4467652;32;34533;-68
2023/09/10 07:09:55;;;;;;;6.00;3.33;;;;;;;24.89;47.46;99980.50;4467121;32;34055;-68
2023/09/10 07:12:23;;;;;;;8.63;4.47;;;;;;;24.80;47.49;99990.75;4465366;32;35521;-68
2023/09/10 07:14:51;;;;;;;7.45;4.40;;;;;;;25.09;47.25;99992.38;4466797;32;34859;-68
2023/09/10 07:17:18;;;;;;;8.73;4.72;;;;;;;24.64;47.81;99992.75;4468113;32;33305;-68
2023/09/10 07:19:46;;;;;;;10.20;4.60;;;;;;;25.09;46.78;99985.00;4464390;32;33573;-68
2023/09/10 07:22:14;;;;;;;11.82;6.40;;;;;;;25.19;47.20;99992.03;4462224;32;36450;-67
2023/09/10 07:24:42;;;;;;;9.23;5.40;;;;;;;25.22;46.69;99989.75;4465295;32;33937;-68
2023/09/10 07:27:09;;;;;;;7.10;4.57;;;;;;;25.28;46.47;99983.44;4467908;32;34094;-68
2023/09/10 07:29:37;;;;;;;7.87;5.62;;;;;;;25.06;46.97;99990.91;4465921;32;33778;-68
2023/09/10 07:32:05;;;;;;;9.80;5.50;;;;;;;25.49;46.41;99998.06;4466845;32;34023;-68
2023/09/10 07:34:32;;;;;;;10.63;4.62;;;;;;;25.58;46.29;99988.59;4465879;32;33637;-68
2023/09/10 07:37:00;;;;;;;8.00;4.50;;;;;;;25.44;46.59;99989.62;4465291;32;33141;-68
2023/09/10 07:39:29;;;;;;;8.10;5.05;;;;;;;25.66;46.79;99993.91;4466029;32;35067;-68
2023/09/10 07:41:57;;;;;;;8.93;5.43;;;;;;;25.98;45.09;99991.47;4463902;32;33961;-68
2023/09/10 07:44:25;;;;;;;9.45;4.60;;;;;;;26.09;44.67;99992.75;4462793;32;34628;-68
2023/09/10 07:46:52;;;;;;;7.28;4.97;;;;;;;26.07;45.31;99990.22;4463520;32;34557;-68
2023/09/10 07:49:20;;;;;;;9.25;4.90;;;;;;;25.93;44.49;99988.50;4465291;32;34901;-68
2023/09/10 07:51:48;;;;;;;10.32;5.40;;;;;;;26.08;44.44;99997.38;4465431;32;33840;-68
2023/09/10 07:54:15;;;;;;;7.55;4.20;;;;;;;26.28;43.67;99991.06;4464517;32;32151;-68
2023/09/10 07:56:45;;;;;;;6.87;3.92;;;;;;;26.33;43.45;99989.38;4467280;32;34156;-68
2023/09/10 07:59:13;;;;;;;8.77;4.80;;;;;;;26.39;44.15;99985.78;4467405;32;34035;-68
2023/09/10 08:01:41;;;;;;;9.13;4.85;;;;;;;26.11;43.69;99979.66;4464795;32;34164;-67
2023/09/10 08:04:09;;;;;;;8.57;4.03;;;;;;;26.41;43.08;99977.34;4462301;32;34245;-68
2023/09/10 08:06:36;;;;;;;8.00;3.92;;;;;;;26.80;42.78;99981.09;4461567;32;34807;-68
2023/09/10 08:09:05;;;;;;;6.82;3.53;;;;;;;26.93;42.99;99975.56;4461628;32;33842;-68
2023/09/10 08:11:35;;;;;;;6.57;3.72;;;;;;;27.37;41.31;99971.22;4467740;32;34984;-68
2023/09/10 08:14:02;;;;;;;6.00;3.67;;;;;;;27.49;39.91;99974.97;4463678;32;33640;-68
2023/09/10 08:16:30;;;;;;;7.72;3.90;;;;;;;27.55;40.04;99974.09;4466437;32;34466;-68
2023/09/10 08:18:58;;;;;;;9.65;5.05;;;;;;;27.47;40.22;99979.81;4467777;32;33555;-68
2023/09/10 08:21:26;;;;;;;8.30;4.72;;;;;;;27.58;40.90;99979.16;4461584;32;35175;-67
2023/09/10 08:23:54;;;;;;;8.82;4.40;;;;;;;27.59;40.76;99971.72;4461869;32;34675;-68
2023/09/10 08:26:22;;;;;;;6.72;3.83;;;;;;;27.68;40.40;99973.16;4462324;32;33625;-68
2023/09/10 08:28:50;;;;;;;11.60;6.18;;;;;;;27.64;39.94;99972.78;4464061;32;33635;-68
2023/09/10 08:31:17;;;;;;;8.88;4.82;;;;;;;27.40;40.57;99968.03;4455250;32;34035;-68
2023/09/10 08:33:45;;;;;;;7.00;4.43;;;;;;;27.62;40.01;99963.87;4461585;32;34661;-68
2023/09/10 08:36:13;;;;;;;7.60;4.30;;;;;;;27.49;40.45;99974.97;4452755;32;33089;-68
2023/09/10 08:38:41;;;;;;;11.70;4.75;;;;;;;27.15;41.27;99963.28;4464949;32;33666;-68
2023/09/10 08:41:19;;;;;;;11.38;4.82;;;;;;;26.95;41.63;99965.22;4464394;32;34979;-68
2023/09/10 08:43:57;;;;;;;7.57;4.40;;;;;;;27.13;42.04;99964.53;4464636;32;33873;-68
2023/09/10 08:46:32;;;;;;;10.38;4.47;;;;;;;26.70;42.11;99967.81;4464841;32;34252;-68
2023/09/10 08:49:00;;;;;;;9.57;3.75;;;;;;;27.11;41.63;99966.66;4467235;32;34846;-68
2023/09/10 08:51:29;;;;;;;6.32;3.78;;;;;;;27.14;40.72;99960.75;4467086;32;33824;-68
2023/09/10 08:53:57;;;;;;;7.37;4.53;;;;;;;27.27;40.60;99965.34;4443629;32;34200;-68
2023/09/10 08:56:26;;;;;;;7.85;4.12;;;;;;;27.24;40.71;99966.62;4448562;32;33547;-68
2023/09/10 08:58:55;;;;;;;7.72;4.22;;;;;;;27.43;40.35;99967.59;4427427;32;34825;-68
2023/09/10 09:01:24;;;;;;;8.57;4.43;;;;;;;27.68;40.64;99958.56;4423555;32;33904;-68
2023/09/10 09:03:52;;;;;;;8.50;4.03;;;;;;;27.48;39.93;99953.19;4425554;32;33498;-68
2023/09/10 09:06:20;;;;;;;11.10;5.65;;;;;;;27.52;40.43;99959.94;4418970;32;34023;-67
2023/09/10 09:08:51;;;;;;;8.75;4.57;;;;;;;27.40;40.07;99957.88;4428217;32;32577;-68
2023/09/10 09:11:22;;;;;;;;;;;;;;;27.91;40.15;99956.13;4425934;32;34642;-68
2023/09/10 09:13:52;;;;;;;8.75;4.05;;;;;;;27.65;39.83;99951.59;4425331;32;34630;-68
2023/09/10 09:16:20;;;;;;;8.95;3.97;;;;;;;27.72;39.04;99946.91;4417249;32;32889;-68
2023/09/10 09:18:48;;;;;;;8.25;3.85;;;;;;;27.84;39.45;99944.31;4419083;32;33278;-68
2023/09/10 09:21:23;;;;;;;6.47;3.33;;;;;;;27.73;40.22;99948.56;4415952;32;35351;-68
2023/09/10 09:23:55;;;;;;;10.35;4.72;;;;;;;28.14;38.39;99938.16;4419699;32;33896;-68
2023/09/10 09:26:24;;;;;;;7.97;5.30;;;;;;;28.02;38.10;99935.28;4439850;32;33355;-68
2023/09/10 09:28:52;;;;;;;11.48;5.57;;;;;;;28.32;37.73;99936.31;4440307;32;34098;-68
2023/09/10 09:31:21;;;;;;;6.30;4.35;;;;;;;28.35;38.19;99935.00;4458456;32;35135;-68
2023/09/10 09:33:49;;;;;;;7.47;5.00;;;;;;;28.66;37.75;99930.47;4464958;32;35499;-68
2023/09/10 09:36:17;;;;;;;7.70;4.32;;;;;;;28.78;37.33;99934.16;4455625;32;32097;-68
2023/09/10 09:38:48;;;;;;;11.35;5.35;;;;;;;28.86;36.21;99925.59;4463667;32;34549;-68
2023/09/10 09:41:17;;;;;;;7.82;4.40;;;;;;;28.64;37.27;99924.37;4462742;32;34074;-68
2023/09/10 09:43:45;;;;;;;6.45;3.53;;;;;;;29.05;35.49;99920.09;4462652;32;34959;-68
2023/09/10 09:46:12;;;;;;;7.57;4.53;;;;;;;28.70;35.88;99931.69;4458163;32;33556;-68
2023/09/10 09:48:40;;;;;;;8.18;4.03;;;;;;;28.88;34.63;99920.69;4457343;32;33362;-67
2023/09/10 09:51:09;;;;;;;8.10;5.03;;;;;;;28.63;35.52;99923.50;4457653;32;33678;-67
2023/09/10 09:53:37;;;;;;;7.53;4.30;;;;;;;28.47;36.26;99926.88;4462953;32;33778;-67
2023/09/10 09:56:05;;;;;;;9.43;4.65;;;;;;;28.96;35.41;99919.56;4456757;32;33065;-67
2023/09/10 09:58:33;;;;;;;11.75;5.15;;;;;;;29.15;34.97;99918.50;4461251;32;33591;-68
2023/09/10 10:01:01;;;;;;;8.32;4.93;;;;;;;29.46;33.73;99913.81;4457879;32;35014;-68
2023/09/10 10:03:31;;;;;;;8.32;4.75;;;;;;;29.75;33.34;99916.81;4459294;32;34091;-68
2023/09/10 10:05:59;;;;;;;7.60;4.90;;;;;;;29.78;32.93;99913.56;4464804;32;33073;-69
2023/09/10 10:08:31;;;;;;;9.13;4.65;;;;;;;29.54;33.33;99907.97;4458085;32;33540;-69
2023/09/10 10:10:59;;;;;;;8.00;4.20;;;;;;;29.67;33.61;99904.22;4463891;32;33701;-68
2023/09/10 10:13:27;;;;;;;6.65;4.15;;;;;;;30.15;31.53;99903.22;4463165;32;33829;-68
2023/09/10 10:15:55;;;;;;;8.27;5.03;;;;;;;30.33;31.60;99897.56;4459619;32;33266;-68
2023/09/10 10:18:26;;;;;;;7.37;4.32;;;;;;;30.29;31.44;99898.31;4467106;32;33920;-69
2023/09/10 10:20:58;;;;;;;9.70;4.10;;;;;;;30.37;33.01;99886.91;4466342;32;33725;-71
2023/09/10 10:23:26;;;;;;;7.93;4.57;;;;;;;30.31;31.35;99890.62;4452788;32;34377;-70
2023/09/10 10:25:54;;;;;;;8.27;4.60;;;;;;;30.34;31.44;99888.22;4466586;32;33068;-71
2023/09/10 10:28:22;;;;;;;10.88;4.32;;;;;;;30.24;31.59;99893.53;4461789;32;35132;-71
2023/09/10 10:30:55;;;;;;;5.75;3.42;;;;;;;30.59;30.82;99889.88;4465863;32;34107;-71
2023/09/10 10:33:24;;;;;;;9.60;4.20;;;;;;;30.77;29.84;99891.69;4452678;32;33389;-71
2023/09/10 10:36:03;;;;;;;7.80;4.15;;;;;;;30.38;30.86;99889.41;4459506;32;31681;-70
2023/09/10 10:38:33;;;;;;;8.10;4.40;;;;;;;30.65;30.64;99883.38;4463907;32;33740;-70
2023/09/10 10:41:06;;;;;;;9.85;4.45;;;;;;;30.69;29.92;99887.34;4463470;32;34201;-71
2023/09/10 10:43:42;;;;;;;9.82;4.57;;;;;;;31.00;30.29;99882.47;4467961;32;34338;-71
2023/09/10 10:46:10;;;;;;;9.00;4.68;;;;;;;30.82;30.11;99886.28;4457892;32;34039;-70
2023/09/10 10:48:41;;;;;;;8.57;4.37;;;;;;;31.01;29.87;99871.19;4455553;32;33587;-71
2023/09/10 10:51:11;;;;;;;9.77;4.03;;;;;;;31.13;29.68;99871.13;4466002;32;33770;-70
2023/09/10 10:53:39;;;;;;;8.65;4.87;;;;;;;30.88;30.75;99876.97;4457992;32;33712;-70
2023/09/10 10:56:08;;;;;;;7.00;4.78;;;;;;;31.07;30.38;99869.34;4450828;32;33388;-70
2023/09/10 10:58:39;;;;;;;8.60;5.30;;;;;;;31.24;29.98;99863.91;4462065;32;34735;-70
2023/09/10 11:01:10;;;;;;;7.93;4.40;;;;;;;31.21;30.32;99861.63;4463870;32;36845;-70
2023/09/10 11:03:37;;;;;;;9.20;4.55;;;;;;;31.16;29.84;99862.34;4466196;32;34578;-70
2023/09/10 11:06:06;;;;;;;11.50;4.70;;;;;;;31.27;29.68;99846.81;4465738;32;33547;-70
2023/09/10 11:08:41;;;;;;;10.77;4.72;;;;;;;30.72;30.08;99856.44;4463715;32;34363;-71
2023/09/10 11:11:34;;;;;;;6.10;3.80;;;;;;;31.13;30.00;99845.41;4466843;32;35353;-71
2023/09/10 11:14:05;;;;;;;9.02;4.40;;;;;;;31.22;29.76;99849.47;4461226;32;33965;-71
2023/09/10 11:16:38;;;;;;;8.65;4.53;;;;;;;30.95;30.08;99840.91;4462444;32;32099;-71
2023/09/10 11:19:06;;;;;;;7.00;4.37;;;;;;;31.36;29.34;99844.50;4464112;32;33689;-70
2023/09/10 11:22:06;;;;;;;7.90;4.80;;;;;;;31.62;28.71;99851.31;4468333;32;33867;-71
2023/09/10 11:24:36;;;;;;;8.48;5.05;;;;;;;31.47;29.04;99846.38;4398331;32;34325;-71
2023/09/10 11:27:23;;;;;;;11.98;5.47;;;;;;;31.68;28.97;99847.53;4401638;32;33309;-71
2023/09/10 11:30:13;;;;;;;9.07;4.15;;;;;;;31.84;28.30;99843.94;4401759;32;33383;-70
2023/09/10 11:32:42;;;;;;;8.27;5.25;;;;;;;31.67;29.16;99848.66;4402940;32;33708;-70
2023/09/10 11:35:19;;;;;;;7.50;4.15;;;;;;;31.10;29.51;99855.03;4398764;32;34693;-70
2023/09/10 11:37:48;;;;;;;8.52;4.72;;;;;;;31.07;30.60;99850.00;4400985;32;33101;-70
2023/09/10 11:40:17;;;;;;;9.73;5.03;;;;;;;31.65;28.85;99837.81;4401444;32;34483;-70
2023/09/10 11:42:49;;;;;;;8.65;4.40;;;;;;;31.84;28.46;99838.41;4402620;32;33996;-70